sensor_id;sensor_type;location;lat;lon;timestamp;temperature;humidity
2729;DHT22;1372;47.956;7.830;2023-04-29T00:00:56;13.80;99.90
2729;DHT22;1372;47.956;7.830;2023-04-29T00:03:24;13.80;99.90
2729;DHT22;1372;47.956;7.830;2023-04-29T00:05:55;13.80;99.90
2729;DHT22;1372;47.956;7.830;2023-04-29T00:08:24;13.80;99.90
2729;DHT22;1372;47.956;7.830;2023-04-29T00:10:53;13.80;99.90
2729;DHT22;1372;47.956;7.830;2023-04-29T00:13:23;13.70;99.90
2729;DHT22;1372;47.956;7.830;2023-04-29T00:15:52;13.70;99.90
2729;DHT22;1372;47.956;7.830;2023-04-29T00:18:21;13.60;99.90
2729;DHT22;1372;47.956;7.830;2023-04-29T00:20:52;13.70;99.90
2729;DHT22;1372;47.956;7.830;2023-04-29T00:23:23;13.80;99.90
2729;DHT22;1372;47.956;7.830;2023-04-29T00:25:52;13.80;99.90
2729;DHT22;1372;47.956;7.830;2023-04-29T00:28:22;13.80;99.90
2729;DHT22;1372;47.956;7.830;2023-04-29T00:30:51;13.70;99.90
2729;DHT22;1372;47.956;7.830;2023-04-29T00:33:21;13.70;99.90
2729;DHT22;1372;47.956;7.830;2023-04-29T00:35:50;13.70;99.90
2729;DHT22;1372;47.956;7.830;2023-04-29T00:38:19;13.70;99.90
2729;DHT22;1372;47.956;7.830;2023-04-29T00:40:47;13.70;99.90
2729;DHT22;1372;47.956;7.830;2023-04-29T00:43:16;13.80;99.90
2729;DHT22;1372;47.956;7.830;2023-04-29T00:45:49;13.70;99.90
2729;DHT22;1372;47.956;7.830;2023-04-29T00:48:18;13.60;99.90
2729;DHT22;1372;47.956;7.830;2023-04-29T00:50:46;13.60;99.90
2729;DHT22;1372;47.956;7.830;2023-04-29T00:53:16;13.80;99.90
2729;DHT22;1372;47.956;7.830;2023-04-29T00:55:45;13.90;99.90
2729;DHT22;1372;47.956;7.830;2023-04-29T00:58:17;13.90;99.90
2729;DHT22;1372;47.956;7.830;2023-04-29T01:00:46;13.90;99.90
2729;DHT22;1372;47.956;7.830;2023-04-29T01:03:18;13.90;99.90
2729;DHT22;1372;47.956;7.830;2023-04-29T01:05:47;13.80;99.90
2729;DHT22;1372;47.956;7.830;2023-04-29T01:08:26;13.70;99.90
2729;DHT22;1372;47.956;7.830;2023-04-29T01:11:20;13.80;99.90
2729;DHT22;1372;47.956;7.830;2023-04-29T01:13:53;13.90;99.90
2729;DHT22;1372;47.956;7.830;2023-04-29T01:16:33;13.80;99.90
2729;DHT22;1372;47.956;7.830;2023-04-29T01:19:14;13.80;99.90
2729;DHT22;1372;47.956;7.830;2023-04-29T01:21:47;13.80;99.90
2729;DHT22;1372;47.956;7.830;2023-04-29T01:24:17;13.90;99.90
2729;DHT22;1372;47.956;7.830;2023-04-29T01:26:53;14.00;99.90
2729;DHT22;1372;47.956;7.830;2023-04-29T01:29:31;13.80;99.90
2729;DHT22;1372;47.956;7.830;2023-04-29T01:32:04;13.80;99.90
2729;DHT22;1372;47.956;7.830;2023-04-29T01:34:43;13.70;99.90
2729;DHT22;1372;47.956;7.830;2023-04-29T01:37:18;13.70;99.90
2729;DHT22;1372;47.956;7.830;2023-04-29T01:40:10;13.50;99.90
2729;DHT22;1372;47.956;7.830;2023-04-29T01:42:45;13.50;99.90
2729;DHT22;1372;47.956;7.830;2023-04-29T01:45:18;13.50;99.90
2729;DHT22;1372;47.956;7.830;2023-04-29T01:47:52;13.50;99.90
2729;DHT22;1372;47.956;7.830;2023-04-29T01:50:23;13.40;99.90
2729;DHT22;1372;47.956;7.830;2023-04-29T01:52:52;13.40;99.90
2729;DHT22;1372;47.956;7.830;2023-04-29T01:55:22;13.40;99.90
2729;DHT22;1372;47.956;7.830;2023-04-29T01:57:51;13.40;99.90
2729;DHT22;1372;47.956;7.830;2023-04-29T02:00:20;13.40;99.90
2729;DHT22;1372;47.956;7.830;2023-04-29T02:02:49;13.20;99.90
2729;DHT22;1372;47.956;7.830;2023-04-29T02:05:18;13.30;99.90
2729;DHT22;1372;47.956;7.830;2023-04-29T02:07:47;13.30;99.90
2729;DHT22;1372;47.956;7.830;2023-04-29T02:10:18;13.30;99.90
2729;DHT22;1372;47.956;7.830;2023-04-29T02:12:48;13.20;99.90
2729;DHT22;1372;47.956;7.830;2023-04-29T02:15:17;13.20;99.90
2729;DHT22;1372;47.956;7.830;2023-04-29T02:17:46;13.10;99.90
2729;DHT22;1372;47.956;7.830;2023-04-29T02:20:15;13.10;99.90
2729;DHT22;1372;47.956;7.830;2023-04-29T02:22:44;13.10;99.90
2729;DHT22;1372;47.956;7.830;2023-04-29T02:25:13;13.10;99.90
2729;DHT22;1372;47.956;7.830;2023-04-29T02:27:43;13.10;99.90
2729;DHT22;1372;47.956;7.830;2023-04-29T02:30:14;13.10;99.90
2729;DHT22;1372;47.956;7.830;2023-04-29T02:32:43;13.20;99.90
2729;DHT22;1372;47.956;7.830;2023-04-29T02:35:12;13.30;99.90
2729;DHT22;1372;47.956;7.830;2023-04-29T02:37:41;13.10;99.90
2729;DHT22;1372;47.956;7.830;2023-04-29T02:40:11;13.00;99.90
2729;DHT22;1372;47.956;7.830;2023-04-29T02:42:40;13.00;99.90
2729;DHT22;1372;47.956;7.830;2023-04-29T02:45:10;13.00;99.90
2729;DHT22;1372;47.956;7.830;2023-04-29T02:47:40;13.00;99.90
2729;DHT22;1372;47.956;7.830;2023-04-29T02:50:10;12.90;99.90
2729;DHT22;1372;47.956;7.830;2023-04-29T02:52:40;12.90;99.90
2729;DHT22;1372;47.956;7.830;2023-04-29T02:55:09;12.80;99.90
2729;DHT22;1372;47.956;7.830;2023-04-29T02:57:38;12.80;99.90
2729;DHT22;1372;47.956;7.830;2023-04-29T03:00:08;12.80;99.90
2729;DHT22;1372;47.956;7.830;2023-04-29T03:02:37;12.70;99.90
2729;DHT22;1372;47.956;7.830;2023-04-29T03:05:08;12.60;99.90
2729;DHT22;1372;47.956;7.830;2023-04-29T03:07:37;12.70;99.90
2729;DHT22;1372;47.956;7.830;2023-04-29T03:10:07;12.60;99.90
2729;DHT22;1372;47.956;7.830;2023-04-29T03:12:37;12.60;99.90
2729;DHT22;1372;47.956;7.830;2023-04-29T03:15:07;12.50;99.90
2729;DHT22;1372;47.956;7.830;2023-04-29T03:17:40;12.50;99.90
2729;DHT22;1372;47.956;7.830;2023-04-29T03:20:09;12.60;99.90
2729;DHT22;1372;47.956;7.830;2023-04-29T03:22:39;12.50;99.90
2729;DHT22;1372;47.956;7.830;2023-04-29T03:25:08;12.50;99.90
2729;DHT22;1372;47.956;7.830;2023-04-29T03:27:37;12.50;99.90
2729;DHT22;1372;47.956;7.830;2023-04-29T03:30:06;12.60;99.90
2729;DHT22;1372;47.956;7.830;2023-04-29T03:32:36;12.60;99.90
2729;DHT22;1372;47.956;7.830;2023-04-29T03:35:07;12.50;99.90
2729;DHT22;1372;47.956;7.830;2023-04-29T03:37:40;12.50;99.90
2729;DHT22;1372;47.956;7.830;2023-04-29T03:40:12;12.40;99.90
2729;DHT22;1372;47.956;7.830;2023-04-29T03:42:40;12.40;99.90
2729;DHT22;1372;47.956;7.830;2023-04-29T03:45:10;12.40;99.90
2729;DHT22;1372;47.956;7.830;2023-04-29T03:47:40;12.40;99.90
2729;DHT22;1372;47.956;7.830;2023-04-29T03:50:13;12.40;99.90
2729;DHT22;1372;47.956;7.830;2023-04-29T03:52:42;12.30;99.90
2729;DHT22;1372;47.956;7.830;2023-04-29T03:55:13;12.40;99.90
2729;DHT22;1372;47.956;7.830;2023-04-29T03:57:42;12.50;99.90
2729;DHT22;1372;47.956;7.830;2023-04-29T04:00:11;12.50;99.90
2729;DHT22;1372;47.956;7.830;2023-04-29T04:02:41;12.50;99.90
2729;DHT22;1372;47.956;7.830;2023-04-29T04:05:09;12.40;99.90
2729;DHT22;1372;47.956;7.830;2023-04-29T04:07:40;12.40;99.90
2729;DHT22;1372;47.956;7.830;2023-04-29T04:10:09;12.40;99.90
2729;DHT22;1372;47.956;7.830;2023-04-29T04:12:40;12.50;99.90
2729;DHT22;1372;47.956;7.830;2023-04-29T04:15:10;12.40;99.90
2729;DHT22;1372;47.956;7.830;2023-04-29T04:17:39;12.30;99.90
2729;DHT22;1372;47.956;7.830;2023-04-29T04:20:08;12.20;99.90
2729;DHT22;1372;47.956;7.830;2023-04-29T04:22:39;12.20;99.90
2729;DHT22;1372;47.956;7.830;2023-04-29T04:25:09;12.20;99.90
2729;DHT22;1372;47.956;7.830;2023-04-29T04:27:38;12.20;99.90
2729;DHT22;1372;47.956;7.830;2023-04-29T04:30:08;12.20;99.90
2729;DHT22;1372;47.956;7.830;2023-04-29T04:32:37;12.10;99.90
2729;DHT22;1372;47.956;7.830;2023-04-29T04:35:07;12.10;99.90
2729;DHT22;1372;47.956;7.830;2023-04-29T04:37:36;12.10;99.90
2729;DHT22;1372;47.956;7.830;2023-04-29T04:40:07;12.20;99.90
2729;DHT22;1372;47.956;7.830;2023-04-29T04:42:38;12.10;99.90
2729;DHT22;1372;47.956;7.830;2023-04-29T04:45:08;12.10;99.90
2729;DHT22;1372;47.956;7.830;2023-04-29T04:47:39;12.10;99.90
2729;DHT22;1372;47.956;7.830;2023-04-29T04:50:09;12.10;99.90
2729;DHT22;1372;47.956;7.830;2023-04-29T04:52:38;12.10;99.90
2729;DHT22;1372;47.956;7.830;2023-04-29T04:55:10;12.10;99.90
2729;DHT22;1372;47.956;7.830;2023-04-29T04:57:41;12.20;99.90
2729;DHT22;1372;47.956;7.830;2023-04-29T05:00:11;12.20;99.90
2729;DHT22;1372;47.956;7.830;2023-04-29T05:02:40;12.20;99.90
2729;DHT22;1372;47.956;7.830;2023-04-29T05:05:09;12.20;99.90
2729;DHT22;1372;47.956;7.830;2023-04-29T05:07:38;12.30;99.90
2729;DHT22;1372;47.956;7.830;2023-04-29T05:10:07;12.30;99.90
2729;DHT22;1372;47.956;7.830;2023-04-29T05:12:38;12.40;99.90
2729;DHT22;1372;47.956;7.830;2023-04-29T05:15:08;12.50;99.90
2729;DHT22;1372;47.956;7.830;2023-04-29T05:17:39;12.60;99.90
2729;DHT22;1372;47.956;7.830;2023-04-29T05:20:09;12.60;99.90
2729;DHT22;1372;47.956;7.830;2023-04-29T05:22:38;12.70;99.90
2729;DHT22;1372;47.956;7.830;2023-04-29T05:25:07;12.90;99.90
2729;DHT22;1372;47.956;7.830;2023-04-29T05:27:38;12.90;99.90
2729;DHT22;1372;47.956;7.830;2023-04-29T05:30:08;13.00;99.90
2729;DHT22;1372;47.956;7.830;2023-04-29T05:32:37;13.10;99.90
2729;DHT22;1372;47.956;7.830;2023-04-29T05:35:07;13.20;99.90
2729;DHT22;1372;47.956;7.830;2023-04-29T05:37:36;13.30;99.90
2729;DHT22;1372;47.956;7.830;2023-04-29T05:40:06;13.30;99.90
2729;DHT22;1372;47.956;7.830;2023-04-29T05:42:37;13.40;99.90
2729;DHT22;1372;47.956;7.830;2023-04-29T05:45:07;13.40;99.90
2729;DHT22;1372;47.956;7.830;2023-04-29T05:47:37;13.50;99.90
2729;DHT22;1372;47.956;7.830;2023-04-29T05:50:06;13.70;99.90
2729;DHT22;1372;47.956;7.830;2023-04-29T05:52:35;13.80;99.90
2729;DHT22;1372;47.956;7.830;2023-04-29T05:55:04;13.90;99.90
2729;DHT22;1372;47.956;7.830;2023-04-29T05:57:34;14.00;99.90
2729;DHT22;1372;47.956;7.830;2023-04-29T06:00:07;14.00;99.90
2729;DHT22;1372;47.956;7.830;2023-04-29T06:02:46;13.90;99.90
2729;DHT22;1372;47.956;7.830;2023-04-29T06:05:25;14.00;99.90
2729;DHT22;1372;47.956;7.830;2023-04-29T06:08:01;14.00;99.90
2729;DHT22;1372;47.956;7.830;2023-04-29T06:10:30;14.00;99.90
2729;DHT22;1372;47.956;7.830;2023-04-29T06:12:59;14.00;99.90
2729;DHT22;1372;47.956;7.830;2023-04-29T06:15:29;14.00;99.90
2729;DHT22;1372;47.956;7.830;2023-04-29T06:17:58;14.00;99.90
2729;DHT22;1372;47.956;7.830;2023-04-29T06:20:27;14.00;99.90
2729;DHT22;1372;47.956;7.830;2023-04-29T06:23:01;14.10;99.90
2729;DHT22;1372;47.956;7.830;2023-04-29T06:25:38;14.10;99.90
2729;DHT22;1372;47.956;7.830;2023-04-29T06:28:06;14.10;99.90
2729;DHT22;1372;47.956;7.830;2023-04-29T06:30:38;14.20;99.90
2729;DHT22;1372;47.956;7.830;2023-04-29T06:33:07;14.10;99.90
2729;DHT22;1372;47.956;7.830;2023-04-29T06:35:38;14.10;99.90
2729;DHT22;1372;47.956;7.830;2023-04-29T06:38:07;14.30;99.90
2729;DHT22;1372;47.956;7.830;2023-04-29T06:40:36;14.50;99.90
2729;DHT22;1372;47.956;7.830;2023-04-29T06:43:05;14.40;99.90
2729;DHT22;1372;47.956;7.830;2023-04-29T06:45:34;14.40;99.90
2729;DHT22;1372;47.956;7.830;2023-04-29T06:48:05;14.30;99.90
2729;DHT22;1372;47.956;7.830;2023-04-29T06:50:34;14.40;99.90
2729;DHT22;1372;47.956;7.830;2023-04-29T06:53:03;14.40;99.90
2729;DHT22;1372;47.956;7.830;2023-04-29T06:55:31;14.40;99.90
2729;DHT22;1372;47.956;7.830;2023-04-29T06:58:02;14.40;99.90
2729;DHT22;1372;47.956;7.830;2023-04-29T07:00:31;14.50;99.90
2729;DHT22;1372;47.956;7.830;2023-04-29T07:03:00;14.50;99.90
2729;DHT22;1372;47.956;7.830;2023-04-29T07:05:33;14.60;99.90
2729;DHT22;1372;47.956;7.830;2023-04-29T07:08:02;14.80;99.90
2729;DHT22;1372;47.956;7.830;2023-04-29T07:10:33;14.80;99.90
2729;DHT22;1372;47.956;7.830;2023-04-29T07:13:04;14.90;99.90
2729;DHT22;1372;47.956;7.830;2023-04-29T07:15:34;14.90;99.90
2729;DHT22;1372;47.956;7.830;2023-04-29T07:18:06;14.90;99.90
2729;DHT22;1372;47.956;7.830;2023-04-29T07:20:37;14.90;99.90
2729;DHT22;1372;47.956;7.830;2023-04-29T07:23:06;14.90;99.90
2729;DHT22;1372;47.956;7.830;2023-04-29T07:25:37;15.00;99.90
2729;DHT22;1372;47.956;7.830;2023-04-29T07:28:06;15.00;99.90
2729;DHT22;1372;47.956;7.830;2023-04-29T07:30:35;15.00;99.90
2729;DHT22;1372;47.956;7.830;2023-04-29T07:33:04;15.10;99.90
2729;DHT22;1372;47.956;7.830;2023-04-29T07:35:33;15.00;99.90
2729;DHT22;1372;47.956;7.830;2023-04-29T07:38:03;15.00;99.90
2729;DHT22;1372;47.956;7.830;2023-04-29T07:40:34;15.00;99.90
2729;DHT22;1372;47.956;7.830;2023-04-29T07:43:02;15.10;99.90
2729;DHT22;1372;47.956;7.830;2023-04-29T07:45:33;15.20;99.90
2729;DHT22;1372;47.956;7.830;2023-04-29T07:48:01;15.20;99.90
2729;DHT22;1372;47.956;7.830;2023-04-29T07:50:33;15.30;99.90
2729;DHT22;1372;47.956;7.830;2023-04-29T07:53:04;15.40;99.90
2729;DHT22;1372;47.956;7.830;2023-04-29T07:55:36;15.40;99.90
2729;DHT22;1372;47.956;7.830;2023-04-29T07:58:08;15.50;99.90
2729;DHT22;1372;47.956;7.830;2023-04-29T08:00:36;15.50;99.90
2729;DHT22;1372;47.956;7.830;2023-04-29T08:03:05;15.50;99.90
2729;DHT22;1372;47.956;7.830;2023-04-29T08:05:34;15.40;99.90
2729;DHT22;1372;47.956;7.830;2023-04-29T08:08:07;15.50;99.90
2729;DHT22;1372;47.956;7.830;2023-04-29T08:10:37;15.70;99.90
2729;DHT22;1372;47.956;7.830;2023-04-29T08:13:09;15.70;99.90
2729;DHT22;1372;47.956;7.830;2023-04-29T08:15:38;15.70;99.90
2729;DHT22;1372;47.956;7.830;2023-04-29T08:18:07;15.70;99.90
2729;DHT22;1372;47.956;7.830;2023-04-29T08:20:35;15.80;99.90
2729;DHT22;1372;47.956;7.830;2023-04-29T08:23:08;15.80;99.90
2729;DHT22;1372;47.956;7.830;2023-04-29T08:25:40;15.90;99.90
2729;DHT22;1372;47.956;7.830;2023-04-29T08:28:10;15.80;99.90
2729;DHT22;1372;47.956;7.830;2023-04-29T08:30:39;15.80;99.90
2729;DHT22;1372;47.956;7.830;2023-04-29T08:33:08;15.80;99.90
2729;DHT22;1372;47.956;7.830;2023-04-29T08:35:39;15.90;99.90
2729;DHT22;1372;47.956;7.830;2023-04-29T08:38:12;15.90;99.90
2729;DHT22;1372;47.956;7.830;2023-04-29T08:40:45;15.90;99.90
2729;DHT22;1372;47.956;7.830;2023-04-29T08:43:17;16.00;99.90
2729;DHT22;1372;47.956;7.830;2023-04-29T08:45:47;16.00;99.90
2729;DHT22;1372;47.956;7.830;2023-04-29T08:48:22;16.10;99.90
2729;DHT22;1372;47.956;7.830;2023-04-29T08:50:52;16.10;99.90
2729;DHT22;1372;47.956;7.830;2023-04-29T08:53:22;16.20;99.90
2729;DHT22;1372;47.956;7.830;2023-04-29T08:55:53;16.10;99.90
2729;DHT22;1372;47.956;7.830;2023-04-29T08:58:24;16.10;99.90
2729;DHT22;1372;47.956;7.830;2023-04-29T09:00:57;16.20;99.90
2729;DHT22;1372;47.956;7.830;2023-04-29T09:03:28;16.10;99.90
2729;DHT22;1372;47.956;7.830;2023-04-29T09:06:00;16.20;99.90
2729;DHT22;1372;47.956;7.830;2023-04-29T09:08:31;16.20;99.90
2729;DHT22;1372;47.956;7.830;2023-04-29T09:11:01;16.30;99.90
2729;DHT22;1372;47.956;7.830;2023-04-29T09:13:32;16.40;99.90
2729;DHT22;1372;47.956;7.830;2023-04-29T09:16:01;16.30;99.90
2729;DHT22;1372;47.956;7.830;2023-04-29T09:18:46;16.40;99.90
2729;DHT22;1372;47.956;7.830;2023-04-29T09:21:20;16.30;99.90
2729;DHT22;1372;47.956;7.830;2023-04-29T09:23:53;16.30;99.90
2729;DHT22;1372;47.956;7.830;2023-04-29T09:26:23;16.30;99.90
2729;DHT22;1372;47.956;7.830;2023-04-29T09:29:11;16.30;99.90
2729;DHT22;1372;47.956;7.830;2023-04-29T09:31:45;16.30;99.90
2729;DHT22;1372;47.956;7.830;2023-04-29T09:34:17;16.40;99.90
2729;DHT22;1372;47.956;7.830;2023-04-29T09:36:46;16.40;99.90
2729;DHT22;1372;47.956;7.830;2023-04-29T09:39:19;16.40;99.90
2729;DHT22;1372;47.956;7.830;2023-04-29T09:41:59;16.30;99.90
2729;DHT22;1372;47.956;7.830;2023-04-29T09:44:33;16.40;99.90
2729;DHT22;1372;47.956;7.830;2023-04-29T09:47:04;16.40;99.90
2729;DHT22;1372;47.956;7.830;2023-04-29T09:49:35;16.70;99.90
2729;DHT22;1372;47.956;7.830;2023-04-29T09:52:11;16.70;99.90
2729;DHT22;1372;47.956;7.830;2023-04-29T09:54:43;16.70;99.90
2729;DHT22;1372;47.956;7.830;2023-04-29T09:57:12;16.60;99.90
2729;DHT22;1372;47.956;7.830;2023-04-29T09:59:42;16.70;99.90
2729;DHT22;1372;47.956;7.830;2023-04-29T10:02:13;16.80;99.90
2729;DHT22;1372;47.956;7.830;2023-04-29T10:04:47;16.80;99.90
2729;DHT22;1372;47.956;7.830;2023-04-29T10:07:25;16.90;99.90
2729;DHT22;1372;47.956;7.830;2023-04-29T10:09:56;17.00;99.90
2729;DHT22;1372;47.956;7.830;2023-04-29T10:12:27;17.10;99.90
2729;DHT22;1372;47.956;7.830;2023-04-29T10:15:01;17.00;99.90
2729;DHT22;1372;47.956;7.830;2023-04-29T10:17:35;17.00;99.90
2729;DHT22;1372;47.956;7.830;2023-04-29T10:20:21;17.00;99.90
2729;DHT22;1372;47.956;7.830;2023-04-29T10:22:54;17.00;99.90
2729;DHT22;1372;47.956;7.830;2023-04-29T10:25:30;17.00;99.90
2729;DHT22;1372;47.956;7.830;2023-04-29T10:28:01;17.00;99.90
2729;DHT22;1372;47.956;7.830;2023-04-29T10:30:34;17.00;99.90
2729;DHT22;1372;47.956;7.830;2023-04-29T10:33:05;16.90;99.90
2729;DHT22;1372;47.956;7.830;2023-04-29T10:35:35;16.90;99.90
2729;DHT22;1372;47.956;7.830;2023-04-29T10:38:12;16.80;99.90
2729;DHT22;1372;47.956;7.830;2023-04-29T10:40:46;16.70;99.90
2729;DHT22;1372;47.956;7.830;2023-04-29T10:43:16;16.80;99.90
2729;DHT22;1372;47.956;7.830;2023-04-29T10:46:18;16.90;99.90
2729;DHT22;1372;47.956;7.830;2023-04-29T10:48:56;16.90;99.90
2729;DHT22;1372;47.956;7.830;2023-04-29T10:51:30;17.20;99.90
2729;DHT22;1372;47.956;7.830;2023-04-29T10:54:06;17.40;99.90
2729;DHT22;1372;47.956;7.830;2023-04-29T10:56:37;17.50;99.90
2729;DHT22;1372;47.956;7.830;2023-04-29T10:59:11;17.50;99.90
2729;DHT22;1372;47.956;7.830;2023-04-29T11:01:45;17.60;99.90
2729;DHT22;1372;47.956;7.830;2023-04-29T11:04:16;17.70;99.90
2729;DHT22;1372;47.956;7.830;2023-04-29T11:06:50;17.80;99.90
2729;DHT22;1372;47.956;7.830;2023-04-29T11:09:25;17.80;99.90
2729;DHT22;1372;47.956;7.830;2023-04-29T11:12:00;17.90;99.90
2729;DHT22;1372;47.956;7.830;2023-04-29T11:14:33;17.90;99.90
2729;DHT22;1372;47.956;7.830;2023-04-29T11:17:07;17.90;99.90
2729;DHT22;1372;47.956;7.830;2023-04-29T11:19:40;17.90;99.90
2729;DHT22;1372;47.956;7.830;2023-04-29T11:22:25;17.90;99.90
2729;DHT22;1372;47.956;7.830;2023-04-29T11:24:57;17.80;99.90
2729;DHT22;1372;47.956;7.830;2023-04-29T11:27:30;17.80;99.90
2729;DHT22;1372;47.956;7.830;2023-04-29T11:30:01;17.80;99.90
2729;DHT22;1372;47.956;7.830;2023-04-29T11:32:33;17.90;99.90
2729;DHT22;1372;47.956;7.830;2023-04-29T11:35:07;18.00;99.90
2729;DHT22;1372;47.956;7.830;2023-04-29T11:37:38;18.00;99.90
2729;DHT22;1372;47.956;7.830;2023-04-29T11:40:09;18.20;99.90
2729;DHT22;1372;47.956;7.830;2023-04-29T11:42:44;18.30;99.90
2729;DHT22;1372;47.956;7.830;2023-04-29T11:45:16;18.40;99.90
2729;DHT22;1372;47.956;7.830;2023-04-29T11:47:48;18.60;99.90
2729;DHT22;1372;47.956;7.830;2023-04-29T11:50:18;18.70;99.90
2729;DHT22;1372;47.956;7.830;2023-04-29T11:52:48;18.70;99.90
2729;DHT22;1372;47.956;7.830;2023-04-29T11:55:18;18.70;99.90
2729;DHT22;1372;47.956;7.830;2023-04-29T11:57:48;18.90;99.90
2729;DHT22;1372;47.956;7.830;2023-04-29T12:00:18;19.00;99.90
2729;DHT22;1372;47.956;7.830;2023-04-29T12:02:49;19.00;99.90
2729;DHT22;1372;47.956;7.830;2023-04-29T12:05:17;19.00;99.90
2729;DHT22;1372;47.956;7.830;2023-04-29T12:07:48;19.00;99.90
2729;DHT22;1372;47.956;7.830;2023-04-29T12:10:17;19.20;99.90
2729;DHT22;1372;47.956;7.830;2023-04-29T12:12:47;19.40;99.90
2729;DHT22;1372;47.956;7.830;2023-04-29T12:15:16;19.60;99.90
2729;DHT22;1372;47.956;7.830;2023-04-29T12:17:45;19.50;99.90
2729;DHT22;1372;47.956;7.830;2023-04-29T12:20:15;19.30;99.90
2729;DHT22;1372;47.956;7.830;2023-04-29T12:22:47;19.30;99.90
2729;DHT22;1372;47.956;7.830;2023-04-29T12:25:16;19.30;99.90
2729;DHT22;1372;47.956;7.830;2023-04-29T12:27:49;19.30;99.90
2729;DHT22;1372;47.956;7.830;2023-04-29T12:30:19;19.20;99.90
2729;DHT22;1372;47.956;7.830;2023-04-29T12:32:51;19.00;99.90
2729;DHT22;1372;47.956;7.830;2023-04-29T12:35:22;19.00;99.90
2729;DHT22;1372;47.956;7.830;2023-04-29T12:37:51;19.20;99.90
2729;DHT22;1372;47.956;7.830;2023-04-29T12:40:20;19.30;99.90
2729;DHT22;1372;47.956;7.830;2023-04-29T12:42:56;19.50;99.90
2729;DHT22;1372;47.956;7.830;2023-04-29T12:45:30;19.70;99.90
2729;DHT22;1372;47.956;7.830;2023-04-29T12:48:00;19.80;99.90
2729;DHT22;1372;47.956;7.830;2023-04-29T12:50:38;19.60;99.90
2729;DHT22;1372;47.956;7.830;2023-04-29T12:53:08;19.60;99.90
2729;DHT22;1372;47.956;7.830;2023-04-29T12:55:38;19.70;99.90
2729;DHT22;1372;47.956;7.830;2023-04-29T12:58:07;19.70;99.90
2729;DHT22;1372;47.956;7.830;2023-04-29T13:00:36;19.70;99.90
2729;DHT22;1372;47.956;7.830;2023-04-29T13:03:05;19.80;99.90
2729;DHT22;1372;47.956;7.830;2023-04-29T13:05:34;19.90;99.90
2729;DHT22;1372;47.956;7.830;2023-04-29T13:08:05;20.10;99.90
2729;DHT22;1372;47.956;7.830;2023-04-29T13:10:37;20.20;99.90
2729;DHT22;1372;47.956;7.830;2023-04-29T13:13:06;20.40;99.90
2729;DHT22;1372;47.956;7.830;2023-04-29T13:15:39;20.20;99.90
2729;DHT22;1372;47.956;7.830;2023-04-29T13:18:08;20.10;99.90
2729;DHT22;1372;47.956;7.830;2023-04-29T13:20:39;20.10;99.90
2729;DHT22;1372;47.956;7.830;2023-04-29T13:23:09;20.10;99.90
2729;DHT22;1372;47.956;7.830;2023-04-29T13:25:38;20.10;99.90
2729;DHT22;1372;47.956;7.830;2023-04-29T13:28:07;20.00;99.90
2729;DHT22;1372;47.956;7.830;2023-04-29T13:30:36;19.90;99.90
2729;DHT22;1372;47.956;7.830;2023-04-29T13:33:04;19.90;99.90
2729;DHT22;1372;47.956;7.830;2023-04-29T13:35:40;19.90;99.90
2729;DHT22;1372;47.956;7.830;2023-04-29T13:38:09;19.80;99.90
2729;DHT22;1372;47.956;7.830;2023-04-29T13:40:38;19.60;99.90
2729;DHT22;1372;47.956;7.830;2023-04-29T13:43:12;19.50;99.90
2729;DHT22;1372;47.956;7.830;2023-04-29T13:45:49;19.50;99.90
2729;DHT22;1372;47.956;7.830;2023-04-29T13:48:19;19.70;99.90
2729;DHT22;1372;47.956;7.830;2023-04-29T13:51:11;19.70;99.90
2729;DHT22;1372;47.956;7.830;2023-04-29T13:54:00;19.80;99.90
2729;DHT22;1372;47.956;7.830;2023-04-29T13:56:49;19.80;99.90
2729;DHT22;1372;47.956;7.830;2023-04-29T13:59:20;19.80;99.90
2729;DHT22;1372;47.956;7.830;2023-04-29T14:01:52;19.70;99.90
2729;DHT22;1372;47.956;7.830;2023-04-29T14:04:41;19.50;99.90
2729;DHT22;1372;47.956;7.830;2023-04-29T14:07:12;19.30;99.90
2729;DHT22;1372;47.956;7.830;2023-04-29T14:09:41;19.50;99.90
2729;DHT22;1372;47.956;7.830;2023-04-29T14:12:10;19.60;99.90
2729;DHT22;1372;47.956;7.830;2023-04-29T14:14:39;19.70;99.90
2729;DHT22;1372;47.956;7.830;2023-04-29T14:17:08;19.70;99.90
2729;DHT22;1372;47.956;7.830;2023-04-29T14:19:36;19.80;99.90
2729;DHT22;1372;47.956;7.830;2023-04-29T14:22:05;19.70;99.90
2729;DHT22;1372;47.956;7.830;2023-04-29T14:24:36;19.90;99.90
2729;DHT22;1372;47.956;7.830;2023-04-29T14:27:05;20.00;99.90
2729;DHT22;1372;47.956;7.830;2023-04-29T14:29:34;19.90;99.90
2729;DHT22;1372;47.956;7.830;2023-04-29T14:32:04;19.60;99.90
2729;DHT22;1372;47.956;7.830;2023-04-29T14:34:33;19.60;99.90
2729;DHT22;1372;47.956;7.830;2023-04-29T14:37:02;19.80;99.90
2729;DHT22;1372;47.956;7.830;2023-04-29T14:39:31;19.70;99.90
2729;DHT22;1372;47.956;7.830;2023-04-29T14:42:01;19.80;99.90
2729;DHT22;1372;47.956;7.830;2023-04-29T14:44:30;19.70;99.90
2729;DHT22;1372;47.956;7.830;2023-04-29T14:47:00;19.80;99.90
2729;DHT22;1372;47.956;7.830;2023-04-29T14:49:29;19.60;99.90
2729;DHT22;1372;47.956;7.830;2023-04-29T14:51:58;19.30;99.90
2729;DHT22;1372;47.956;7.830;2023-04-29T14:54:27;19.20;99.90
2729;DHT22;1372;47.956;7.830;2023-04-29T14:56:56;19.30;99.90
2729;DHT22;1372;47.956;7.830;2023-04-29T14:59:26;19.50;99.90
2729;DHT22;1372;47.956;7.830;2023-04-29T15:01:56;19.70;99.90
2729;DHT22;1372;47.956;7.830;2023-04-29T15:04:25;19.80;99.90
2729;DHT22;1372;47.956;7.830;2023-04-29T15:06:56;19.90;99.90
2729;DHT22;1372;47.956;7.830;2023-04-29T15:09:25;19.70;99.90
2729;DHT22;1372;47.956;7.830;2023-04-29T15:11:55;19.20;99.90
2729;DHT22;1372;47.956;7.830;2023-04-29T15:14:27;19.10;99.90
2729;DHT22;1372;47.956;7.830;2023-04-29T15:16:56;19.20;99.90
2729;DHT22;1372;47.956;7.830;2023-04-29T15:19:25;19.20;99.90
2729;DHT22;1372;47.956;7.830;2023-04-29T15:21:54;19.30;99.90
2729;DHT22;1372;47.956;7.830;2023-04-29T15:24:25;19.10;99.90
2729;DHT22;1372;47.956;7.830;2023-04-29T15:26:57;18.90;99.90
2729;DHT22;1372;47.956;7.830;2023-04-29T15:29:27;18.50;99.90
2729;DHT22;1372;47.956;7.830;2023-04-29T15:31:59;18.40;99.90
2729;DHT22;1372;47.956;7.830;2023-04-29T15:34:27;18.50;99.90
2729;DHT22;1372;47.956;7.830;2023-04-29T15:36:59;18.50;99.90
2729;DHT22;1372;47.956;7.830;2023-04-29T15:39:28;18.50;99.90
2729;DHT22;1372;47.956;7.830;2023-04-29T15:41:58;18.70;99.90
2729;DHT22;1372;47.956;7.830;2023-04-29T15:44:28;18.80;99.90
2729;DHT22;1372;47.956;7.830;2023-04-29T15:46:57;19.00;99.90
2729;DHT22;1372;47.956;7.830;2023-04-29T15:49:26;19.20;99.90
2729;DHT22;1372;47.956;7.830;2023-04-29T15:51:55;19.20;99.90
2729;DHT22;1372;47.956;7.830;2023-04-29T15:54:23;19.40;99.90
2729;DHT22;1372;47.956;7.830;2023-04-29T15:56:54;19.40;99.90
2729;DHT22;1372;47.956;7.830;2023-04-29T15:59:23;19.40;99.90
2729;DHT22;1372;47.956;7.830;2023-04-29T16:01:53;19.30;99.90
2729;DHT22;1372;47.956;7.830;2023-04-29T16:04:22;19.00;99.90
2729;DHT22;1372;47.956;7.830;2023-04-29T16:06:52;18.80;99.90
2729;DHT22;1372;47.956;7.830;2023-04-29T16:09:21;18.50;99.90
2729;DHT22;1372;47.956;7.830;2023-04-29T16:11:50;18.30;99.90
2729;DHT22;1372;47.956;7.830;2023-04-29T16:14:19;18.10;99.90
2729;DHT22;1372;47.956;7.830;2023-04-29T16:16:48;17.80;99.90
2729;DHT22;1372;47.956;7.830;2023-04-29T16:19:19;17.70;99.90
2729;DHT22;1372;47.956;7.830;2023-04-29T16:21:48;17.90;99.90
2729;DHT22;1372;47.956;7.830;2023-04-29T16:24:17;17.80;99.90
2729;DHT22;1372;47.956;7.830;2023-04-29T16:26:48;17.50;99.90